Time;durP1;ratioP1;P1;durP2;ratioP2;P2;SDS_P1;SDS_P2;PMS_P1;PMS_P2;Temp;Humidity;BMP_temperature;BMP_pressure;BME280_temperature;BME280_humidity;BME280_pressure;Samples;Min_cycle;Max_cycle;Signal;HPM_P1;HPM_P2
2024/02/01 00:01:59;;;;;;;;;;;;;;;23.01;31.19;102788.47;4214894;28;20352;-73
2024/02/01 00:04:00;;;;;;;;;;;;;;;23.03;31.32;102791.09;4214739;28;20008;-73
2024/02/01 00:06:02;;;;;;;;;;;;;;;23.01;31.28;102785.78;4214794;28;19920;-72
2024/02/01 00:08:03;;;;;;;;;;;;;;;23.03;31.33;102780.34;4214908;28;19924;-73
2024/02/01 00:10:05;;;;;;;;;;;;;;;23.03;31.04;102769.63;4214794;28;20486;-72
2024/02/01 00:12:07;;;;;;;;;;;;;;;23.02;31.09;102766.03;4214455;28;20014;-72
2024/02/01 00:14:09;;;;;;;;;;;;;;;23.01;31.44;102750.03;4214684;28;19955;-73
2024/02/01 00:16:11;;;;;;;;;;;;;;;23.00;31.39;102756.34;4214589;28;20397;-72
2024/02/01 00:18:13;;;;;;;;;;;;;;;23.00;31.26;102756.34;4214763;28;19985;-72
2024/02/01 00:20:15;;;;;;;;;;;;;;;23.00;31.58;102754.53;4214612;28;19927;-72
2024/02/01 00:22:16;;;;;;;;;;;;;;;23.01;31.11;102740.16;4214572;28;20383;-72
2024/02/01 00:24:33;;;;;;;;;;;;;;;23.02;31.23;102731.16;4214393;28;19973;-72
2024/02/01 00:26:35;;;;;;;;;;;;;;;23.03;31.49;102726.69;4214134;28;19951;-72
2024/02/01 00:28:37;;;;;;;;;;;;;;;23.03;31.58;102724.84;4214480;28;19920;-72
2024/02/01 00:30:39;;;;;;;;;;;;;;;23.04;31.16;102726.59;4214432;28;19927;-72
2024/02/01 00:32:40;;;;;;;;;;;;;;;23.04;31.41;102728.38;4214355;28;19950;-72
2024/02/01 00:34:44;;;;;;;;;;;;;;;23.03;31.45;102724.84;4214446;28;19919;-72
2024/02/01 00:36:45;;;;;;;;;;;;;;;23.03;31.26;102732.91;4214416;28;19924;-72
2024/02/01 00:38:47;;;;;;;;;;;;;;;23.03;31.54;102730.22;4214463;28;19920;-72
2024/02/01 00:40:48;;;;;;;;;;;;;;;23.03;31.17;102716.78;4214174;28;19924;-72
2024/02/01 00:42:50;;;;;;;;;;;;;;;23.01;31.25;102697.22;4213856;28;19920;-73
2024/02/01 00:44:52;;;;;;;;;;;;;;;23.01;31.36;102699.06;4214130;28;20006;-73
2024/02/01 00:46:53;;;;;;;;;;;;;;;23.02;31.31;102698.09;4214196;28;19931;-73
2024/02/01 00:48:55;;;;;;;;;;;;;;;23.03;31.49;102705.22;4214061;28;19942;-72
2024/02/01 00:50:57;;;;;;;;;;;;;;;23.03;31.34;102700.69;4212710;28;19924;-72
2024/02/01 00:52:58;;;;;;;;;;;;;;;23.04;31.45;102694.38;4212916;28;19985;-73
2024/02/01 00:55:01;;;;;;;;;;;;;;;23.05;31.70;102687.19;4212909;28;19954;-72
2024/02/01 00:57:05;;;;;;;;;;;;;;;23.05;31.55;102682.69;4212586;28;19920;-72
2024/02/01 00:59:07;;;;;;;;;;;;;;;23.06;31.61;102678.19;4214042;28;19936;-72
2024/02/01 01:01:08;;;;;;;;;;;;;;;23.05;31.45;102676.44;4214165;28;20426;-71
2024/02/01 01:03:10;;;;;;;;;;;;;;;23.05;31.64;102671.97;4214121;28;19974;-72
2024/02/01 01:05:12;;;;;;;;;;;;;;;23.06;31.59;102664.75;4213813;28;20015;-71
2024/02/01 01:07:13;;;;;;;;;;;;;;;23.06;31.70;102662.06;4214222;28;19963;-71
2024/02/01 01:09:15;;;;;;;;;;;;;;;23.05;31.63;102663.03;4213993;28;19993;-72
2024/02/01 01:11:17;;;;;;;;;;;;;;;23.05;31.55;102676.44;4213615;28;20394;-71
2024/02/01 01:13:18;;;;;;;;;;;;;;;23.04;31.49;102682.75;4216408;28;19985;-72
2024/02/01 01:15:20;;;;;;;;;;;;;;;23.04;31.65;102680.06;4217428;28;20295;-71
2024/02/01 01:17:21;;;;;;;;;;;;;;;23.05;31.49;102673.75;4217367;28;20295;-71
2024/02/01 01:19:23;;;;;;;;;;;;;;;23.06;31.57;102667.44;4217554;28;19950;-70
2024/02/01 01:21:25;;;;;;;;;;;;;;;23.06;31.45;102659.38;4217357;28;19920;-72
2024/02/01 01:23:26;;;;;;;;;;;;;;;23.07;31.33;102661.13;4217396;28;19920;-70
2024/02/01 01:25:28;;;;;;;;;;;;;;;23.07;31.52;102656.59;4217085;28;19958;-72
2024/02/01 01:27:29;;;;;;;;;;;;;;;23.07;31.40;102656.59;4217449;28;20006;-71
2024/02/01 01:29:31;;;;;;;;;;;;;;;23.07;31.80;102655.75;4217498;28;19932;-72
2024/02/01 01:31:32;;;;;;;;;;;;;;;23.07;31.76;102656.59;4217280;28;20355;-72
2024/02/01 01:33:34;;;;;;;;;;;;;;;23.08;31.48;102644.94;4217178;28;20399;-72
2024/02/01 01:35:36;;;;;;;;;;;;;;;23.09;31.74;102643.13;4216864;28;19920;-71
2024/02/01 01:37:38;;;;;;;;;;;;;;;23.08;31.81;102636.88;4217047;28;19927;-72
2024/02/01 01:39:40;;;;;;;;;;;;;;;23.08;31.69;102649.44;4216497;28;19920;-72
2024/02/01 01:41:45;;;;;;;;;;;;;;;23.07;31.76;102661.13;4216993;28;19930;-72
2024/02/01 01:43:47;;;;;;;;;;;;;;;23.08;31.90;102654.81;4217018;28;19966;-72
2024/02/01 01:45:54;;;;;;;;;;;;;;;23.07;31.69;102650.38;4217092;28;19934;-72
2024/02/01 01:47:56;;;;;;;;;;;;;;;23.07;31.52;102648.56;4217032;28;19930;-72
2024/02/01 01:49:57;;;;;;;;;;;;;;;23.09;31.81;102653.84;4217024;28;19965;-72
2024/02/01 01:51:59;;;;;;;;;;;;;;;23.09;31.53;102651.19;4217162;28;19939;-72
2024/02/01 01:54:03;;;;;;;;;;;;;;;23.09;31.87;102649.34;4216459;28;19927;-72
2024/02/01 01:56:05;;;;;;;;;;;;;;;23.11;31.72;102638.50;4216754;28;19924;-73
2024/02/01 01:58:07;;;;;;;;;;;;;;;23.12;31.75;102635.75;4216838;28;19952;-73
2024/02/01 02:00:09;;;;;;;;;;;;;;;23.12;31.66;102627.72;4217216;28;19920;-73
2024/02/01 02:02:11;;;;;;;;;;;;;;;23.12;31.87;102634.88;4216997;28;19920;-73
2024/02/01 02:04:16;;;;;;;;;;;;;;;23.10;31.68;102626.94;4216582;28;20353;-73
2024/02/01 02:06:18;;;;;;;;;;;;;;;23.08;31.70;102623.44;4216874;28;20276;-73
2024/02/01 02:08:19;;;;;;;;;;;;;;;23.07;32.07;102616.34;4216130;28;19920;-73
2024/02/01 02:10:21;;;;;;;;;;;;;;;23.08;31.97;102615.41;4216724;28;19920;-73
2024/02/01 02:12:23;;;;;;;;;;;;;;;23.08;31.82;102622.59;4216676;28;19919;-73
2024/02/01 02:14:25;;;;;;;;;;;;;;;23.09;31.98;102613.59;4216491;28;20317;-73
2024/02/01 02:16:26;;;;;;;;;;;;;;;23.11;31.77;102617.91;4216531;28;19927;-73
2024/02/01 02:18:28;;;;;;;;;;;;;;;23.12;31.75;102626.81;4216636;28;20011;-73
2024/02/01 02:20:30;;;;;;;;;;;;;;;23.11;31.85;102636.72;4216723;28;19942;-73
2024/02/01 02:22:31;;;;;;;;;;;;;;;23.13;31.82;102633.94;4216251;28;19965;-72
2024/02/01 02:24:33;;;;;;;;;;;;;;;23.13;31.68;102634.78;4216409;28;19920;-73
2024/02/01 02:26:34;;;;;;;;;;;;;;;23.13;32.07;102639.28;4216339;28;19950;-73
2024/02/01 02:28:38;;;;;;;;;;;;;;;23.12;31.86;102633.06;4216478;28;19919;-73
2024/02/01 02:30:40;;;;;;;;;;;;;;;23.12;32.07;102633.06;4216406;28;19920;-73
2024/02/01 02:32:43;;;;;;;;;;;;;;;23.11;32.05;102634.03;4216221;28;19919;-72
2024/02/01 02:34:45;;;;;;;;;;;;;;;23.12;31.87;102642.94;4216386;28;20306;-72
2024/02/01 02:36:46;;;;;;;;;;;;;;;23.10;31.85;102632.28;4216086;28;19920;-72
2024/02/01 02:38:48;;;;;;;;;;;;;;;23.11;31.97;102635.81;4215852;28;20413;-73
2024/02/01 02:40:50;;;;;;;;;;;;;;;23.11;32.17;102639.41;4214861;28;20010;-73
2024/02/01 02:42:51;;;;;;;;;;;;;;;23.12;32.05;102641.13;4216309;28;20388;-73
2024/02/01 02:44:53;;;;;;;;;;;;;;;23.12;31.79;102645.59;4215762;28;19927;-73
2024/02/01 02:46:54;;;;;;;;;;;;;;;23.13;32.08;102648.19;4216183;28;19924;-73
2024/02/01 02:48:56;;;;;;;;;;;;;;;23.14;31.97;102649.94;4215957;28;20407;-72
2024/02/01 02:50:58;;;;;;;;;;;;;;;23.14;32.13;102649.94;4216086;28;20344;-72
2024/02/01 02:53:00;;;;;;;;;;;;;;;23.16;31.91;102657.03;4214526;28;20294;-73
2024/02/01 02:55:01;;;;;;;;;;;;;;;23.15;32.08;102648.13;4215925;28;20432;-73
2024/02/01 02:57:03;;;;;;;;;;;;;;;23.14;31.89;102652.63;4214712;28;20018;-73
2024/02/01 02:59:04;;;;;;;;;;;;;;;23.14;32.14;102644.56;4215781;28;19928;-73
2024/02/01 03:01:08;;;;;;;;;;;;;;;23.13;32.10;102636.59;4215842;28;20306;-73
2024/02/01 03:03:09;;;;;;;;;;;;;;;23.13;31.91;102645.50;4215952;28;20006;-73
2024/02/01 03:05:11;;;;;;;;;;;;;;;23.13;32.02;102642.81;4215709;28;19926;-73
2024/02/01 03:07:13;;;;;;;;;;;;;;;23.12;32.14;102635.75;4215184;28;19924;-73
2024/02/01 03:09:16;;;;;;;;;;;;;;;23.13;32.07;102640.16;4215774;28;19984;-73
2024/02/01 03:11:18;;;;;;;;;;;;;;;23.13;32.21;102632.09;4215813;28;19931;-73
2024/02/01 03:13:20;;;;;;;;;;;;;;;23.14;32.07;102627.59;4215705;28;19920;-73
2024/02/01 03:15:22;;;;;;;;;;;;;;;23.16;31.91;102630.19;4215461;28;19920;-73
2024/02/01 03:17:23;;;;;;;;;;;;;;;23.15;31.78;102626.66;4215436;28;19920;-73
2024/02/01 03:19:25;;;;;;;;;;;;;;;23.17;32.08;102618.53;4215667;28;20011;-74
2024/02/01 03:21:27;;;;;;;;;;;;;;;23.18;32.36;102629.19;4215297;28;19920;-73
2024/02/01 03:23:28;;;;;;;;;;;;;;;23.18;32.30;102639.91;4215370;28;20490;-72
2024/02/01 03:25:31;;;;;;;;;;;;;;;23.16;32.00;102636.44;4215335;28;19927;-73
2024/02/01 03:27:33;;;;;;;;;;;;;;;23.17;32.13;102651.59;4215451;28;20349;-73
2024/02/01 03:29:35;;;;;;;;;;;;;;;23.17;32.06;102646.22;4215352;28;19920;-73
2024/02/01 03:31:42;;;;;;;;;;;;;;;23.15;32.08;102645.44;4215261;28;19920;-74
2024/02/01 03:33:49;;;;;;;;;;;;;;;23.14;32.14;102638.34;4215205;28;19920;-74
2024/02/01 03:35:51;;;;;;;;;;;;;;;23.16;32.03;102640.94;4214238;28;19923;-73
2024/02/01 03:37:53;;;;;;;;;;;;;;;23.16;32.16;102631.06;4215154;28;19920;-73
2024/02/01 03:39:55;;;;;;;;;;;;;;;23.17;32.34;102621.22;4215140;28;19920;-73
2024/02/01 03:41:57;;;;;;;;;;;;;;;23.18;31.96;102622.97;4215287;28;19920;-73
2024/02/01 03:43:59;;;;;;;;;;;;;;;23.19;32.23;102630.06;4214970;28;20353;-72
2024/02/01 03:46:00;;;;;;;;;;;;;;;23.19;32.39;102632.75;4215253;28;19927;-72
2024/02/01 03:48:08;;;;;;;;;;;;;;;23.19;32.32;102638.97;4215080;28;19927;-73
2024/02/01 03:50:10;;;;;;;;;;;;;;;23.19;32.12;102638.97;4214605;28;20448;-73
2024/02/01 03:52:12;;;;;;;;;;;;;;;23.19;32.24;102644.34;4215174;28;19951;-73
2024/02/01 03:54:14;;;;;;;;;;;;;;;23.19;32.48;102647.00;4215147;28;20398;-72
2024/02/01 03:56:23;;;;;;;;;;;;;;;23.19;32.29;102630.91;4215007;28;20333;-73
2024/02/01 03:58:26;;;;;;;;;;;;;;;23.19;32.20;102633.59;4214908;28;20449;-72
2024/02/01 04:00:28;;;;;;;;;;;;;;;23.19;32.43;102622.00;4213642;28;19920;-72
2024/02/01 04:02:30;;;;;;;;;;;;;;;23.17;32.38;102624.75;4214686;28;19920;-73
2024/02/01 04:04:32;;;;;;;;;;;;;;;23.18;32.30;102629.19;4214425;28;19920;-73
2024/02/01 04:06:34;;;;;;;;;;;;;;;23.18;32.17;102631.84;4214872;28;19924;-73
2024/02/01 04:08:36;;;;;;;;;;;;;;;23.20;32.58;102631.78;4214839;28;19919;-73
2024/02/01 04:10:38;;;;;;;;;;;;;;;23.21;32.23;102631.69;4214692;28;19920;-73
2024/02/01 04:12:40;;;;;;;;;;;;;;;23.00;32.30;102596.19;4214914;28;19920;-73
2024/02/01 04:14:41;;;;;;;;;;;;;;;23.22;32.16;102641.47;4214578;28;19924;-72
2024/02/01 04:16:43;;;;;;;;;;;;;;;23.23;32.26;102640.53;4214722;28;19926;-72
2024/02/01 04:18:45;;;;;;;;;;;;;;;23.24;32.30;102644.06;4214289;28;20349;-72
2024/02/01 04:20:46;;;;;;;;;;;;;;;23.23;32.61;102636.97;4214649;28;19920;-72
2024/02/01 04:22:53;;;;;;;;;;;;;;;23.23;32.19;102637.84;4214602;28;19920;-72
2024/02/01 04:24:54;;;;;;;;;;;;;;;23.22;32.59;102636.13;4214455;28;19920;-72
2024/02/01 04:26:56;;;;;;;;;;;;;;;23.23;32.68;102639.66;4214553;28;19965;-73
2024/02/01 04:28:58;;;;;;;;;;;;;;;23.20;32.29;102642.53;4214490;28;19963;-72
2024/02/01 04:31:01;;;;;;;;;;;;;;;23.19;32.55;102635.44;4214681;28;19931;-73
2024/02/01 04:33:03;;;;;;;;;;;;;;;23.20;32.58;102642.53;4214171;28;19920;-72
2024/02/01 04:35:06;;;;;;;;;;;;;;;23.21;32.54;102642.44;4214530;28;20410;-72
2024/02/01 04:37:12;;;;;;;;;;;;;;;23.23;32.71;102647.69;4214337;28;20429;-72
2024/02/01 04:39:13;;;;;;;;;;;;;;;23.24;32.75;102657.50;4214518;28;20349;-72
2024/02/01 04:41:15;;;;;;;;;;;;;;;23.24;32.58;102661.03;4214159;28;19928;-73
2024/02/01 04:43:19;;;;;;;;;;;;;;;23.24;32.60;102652.97;4213259;28;20294;-72
2024/02/01 04:45:20;;;;;;;;;;;;;;;23.25;32.72;102656.53;4214432;28;19943;-71
2024/02/01 04:47:22;;;;;;;;;;;;;;;23.24;32.66;102654.81;4213436;28;19920;-69
2024/02/01 04:49:23;;;;;;;;;;;;;;;23.23;32.73;102648.59;4214415;28;20425;-72
2024/02/01 04:51:25;;;;;;;;;;;;;;;23.24;32.73;102644.91;4214368;28;19931;-71
2024/02/01 04:53:27;;;;;;;;;;;;;;;23.24;32.77;102650.28;4214364;28;20386;-71
2024/02/01 04:55:29;;;;;;;;;;;;;;;23.25;32.72;102643.13;4214162;28;20284;-71
2024/02/01 04:57:30;;;;;;;;;;;;;;;23.22;32.60;102636.13;4214222;28;19926;-71
2024/02/01 04:59:32;;;;;;;;;;;;;;;23.23;32.58;102636.97;4214352;28;19951;-71
2024/02/01 05:01:33;;;;;;;;;;;;;;;23.24;32.53;102644.06;4214270;28;19939;-72
2024/02/01 05:03:35;;;;;;;;;;;;;;;23.25;32.59;102646.66;4213914;28;19959;-71
2024/02/01 05:05:37;;;;;;;;;;;;;;;23.24;32.83;102639.56;4213994;28;19920;-72
2024/02/01 05:07:39;;;;;;;;;;;;;;;23.24;32.89;102641.38;4214201;28;19949;-71
2024/02/01 05:09:42;;;;;;;;;;;;;;;23.24;32.96;102647.59;4213984;28;19920;-72
2024/02/01 05:11:43;;;;;;;;;;;;;;;23.27;32.69;102651.97;4213979;28;19920;-72
2024/02/01 05:13:45;;;;;;;;;;;;;;;23.26;32.72;102645.69;4214031;28;19981;-72
2024/02/01 05:15:47;;;;;;;;;;;;;;;23.25;32.65;102653.84;4214249;28;19920;-72
2024/02/01 05:17:49;;;;;;;;;;;;;;;23.26;32.92;102655.59;4213490;28;19928;-71
2024/02/01 05:19:50;;;;;;;;;;;;;;;23.25;32.77;102651.16;4213944;28;20018;-72
2024/02/01 05:21:52;;;;;;;;;;;;;;;23.26;33.06;102653.75;4214123;28;20006;-72
2024/02/01 05:23:54;;;;;;;;;;;;;;;23.24;32.78;102647.59;4214101;28;20371;-72
2024/02/01 05:25:56;;;;;;;;;;;;;;;23.25;32.76;102653.84;4213927;28;19927;-72
2024/02/01 05:27:58;;;;;;;;;;;;;;;23.25;33.10;102654.69;4214177;28;19955;-72
2024/02/01 05:30:00;;;;;;;;;;;;;;;23.25;32.88;102646.66;4213887;28;19927;-72
2024/02/01 05:32:05;;;;;;;;;;;;;;;23.26;33.06;102644.84;4213758;28;20341;-73
2024/02/01 05:34:10;;;;;;;;;;;;;;;23.27;32.90;102643.91;4213811;28;20361;-72
2024/02/01 05:36:11;;;;;;;;;;;;;;;23.28;33.22;102640.22;4213773;28;19920;-72
2024/02/01 05:38:13;;;;;;;;;;;;;;;23.28;32.88;102645.59;4213746;28;19928;-72
2024/02/01 05:40:16;;;;;;;;;;;;;;;23.28;33.25;102641.13;4213776;28;19927;-72
2024/02/01 05:42:18;;;;;;;;;;;;;;;23.28;33.07;102650.97;4213882;28;19920;-72
2024/02/01 05:44:20;;;;;;;;;;;;;;;23.28;32.87;102659.03;4213975;28;19973;-72
2024/02/01 05:46:22;;;;;;;;;;;;;;;23.27;33.16;102658.19;4213467;28;20006;-72
2024/02/01 05:48:24;;;;;;;;;;;;;;;23.27;33.10;102654.63;4213806;28;19973;-72
2024/02/01 05:50:25;;;;;;;;;;;;;;;23.28;33.21;102653.66;4213946;28;20354;-72
2024/02/01 05:52:27;;;;;;;;;;;;;;;23.27;33.26;102650.13;4213817;28;19951;-72
2024/02/01 05:54:28;;;;;;;;;;;;;;;23.27;33.00;102651.97;4212451;28;19962;-72
2024/02/01 05:56:30;;;;;;;;;;;;;;;23.04;33.13;102616.56;4213831;28;19920;-72
2024/02/01 05:58:32;;;;;;;;;;;;;;;23.27;33.00;102651.97;4214566;28;19926;-72
2024/02/01 06:00:33;;;;;;;;;;;;;;;23.29;33.08;102656.28;4216656;28;19926;-72
2024/02/01 06:02:35;;;;;;;;;;;;;;;23.29;33.17;102655.38;4216933;28;19927;-72
2024/02/01 06:04:37;;;;;;;;;;;;;;;23.32;33.16;102662.41;4216873;28;20040;-72
2024/02/01 06:06:39;;;;;;;;;;;;;;;23.32;33.29;102657.91;4216810;28;20002;-72
2024/02/01 06:08:41;;;;;;;;;;;;;;;23.30;33.32;102662.50;4216707;28;19920;-72
2024/02/01 06:10:43;;;;;;;;;;;;;;;23.31;33.43;102657.97;4216853;28;19973;-72
2024/02/01 06:12:45;;;;;;;;;;;;;;;23.32;33.33;102665.97;4216844;28;19920;-72
2024/02/01 06:14:46;;;;;;;;;;;;;;;23.31;33.08;102672.28;4216425;28;20456;-72
2024/02/01 06:16:48;;;;;;;;;;;;;;;23.31;33.08;102672.28;4216762;28;19927;-72
2024/02/01 06:18:50;;;;;;;;;;;;;;;23.29;33.48;102668.81;4215152;28;19919;-72
2024/02/01 06:20:51;;;;;;;;;;;;;;;23.28;33.38;102670.66;4216629;28;20393;-72
2024/02/01 06:22:53;;;;;;;;;;;;;;;23.27;33.43;102668.91;4216719;28;19920;-73
2024/02/01 06:24:55;;;;;;;;;;;;;;;23.26;33.24;102669.88;4216525;28;19919;-72
2024/02/01 06:26:58;;;;;;;;;;;;;;;23.28;33.22;102667.97;4215391;28;20411;-72
2024/02/01 06:29:07;;;;;;;;;;;;;;;23.29;33.21;102677.75;4216143;28;19999;-72
2024/02/01 06:31:13;;;;;;;;;;;;;;;23.31;33.42;102677.66;4215112;28;19920;-72
2024/02/01 06:33:15;;;;;;;;;;;;;;;23.32;33.39;102683.88;4216417;28;19923;-72
2024/02/01 06:35:16;;;;;;;;;;;;;;;23.33;33.42;102691.88;4216463;28;19931;-72
2024/02/01 06:37:21;;;;;;;;;;;;;;;23.33;33.28;102686.50;4216057;28;19920;-73
2024/02/01 06:46:22;;;;;;;;;;;;;;;23.31;33.24;102704.50;4216082;28;19932;-72
2024/02/01 06:48:40;;;;;;;;;;;;;;;23.31;33.29;102704.50;4216193;28;20699;-72
2024/02/01 06:50:54;;;;;;;;;;;;;;;23.31;33.35;102698.25;4216208;28;19949;-72
2024/02/01 06:53:08;;;;;;;;;;;;;;;23.30;33.56;102700.09;4215999;28;19919;-72
2024/02/01 06:57:18;;;;;;;;;;;;;;;23.32;33.38;102698.19;4216015;28;19946;-72
2024/02/01 06:59:44;;;;;;;;;;;;;;;23.33;33.36;102709.78;4215752;28;19998;-72
2024/02/01 07:02:01;;;;;;;;;;;;;;;23.34;33.66;102709.69;4215898;28;20247;-72
2024/02/01 07:04:21;;;;;;;;;;;;;;;23.34;33.72;102719.56;4215873;28;19926;-72
2024/02/01 07:06:38;;;;;;;;;;;;;;;23.34;33.32;102730.31;4215866;28;19946;-72
2024/02/01 07:10:48;;;;;;;;;;;;;;;23.35;33.46;102734.72;4214967;28;19926;-72
2024/02/01 07:13:06;;;;;;;;;;;;;;;23.34;33.37;102733.84;4215215;28;20310;-73
2024/02/01 07:15:22;;;;;;;;;;;;;;;23.33;33.50;102732.13;4215571;28;19927;-72
2024/02/01 07:17:31;;;;;;;;;;;;;;;23.32;33.75;102746.50;4215523;28;19924;-72
2024/02/01 07:19:52;;;;;;;;;;;;;;;23.32;33.36;102749.19;4215666;28;19920;-72
2024/02/01 07:22:03;;;;;;;;;;;;;;;23.32;33.57;102746.50;4215607;28;19974;-72
2024/02/01 07:24:17;;;;;;;;;;;;;;;23.33;33.38;102739.31;4215599;28;19928;-73
2024/02/01 07:26:41;;;;;;;;;;;;;;;23.34;33.81;102741.03;4215611;28;20014;-72
2024/02/01 07:59:10;;;;;;;;;;;;;;;23.36;33.52;102782.97;4214926;28;19920;-71
2024/02/01 08:01:14;;;;;;;;;;;;;;;23.36;33.67;102788.31;4214778;28;19981;-72
2024/02/01 08:03:31;;;;;;;;;;;;;;;23.36;33.64;102785.66;4215020;28;19931;-73
2024/02/01 08:07:54;;;;;;;;;;;;;;;23.36;33.89;102793.69;4214894;28;19920;-71
2024/02/01 08:09:55;;;;;;;;;;;;;;;23.35;33.68;102799.16;4214731;28;19924;-73
2024/02/01 08:12:06;;;;;;;;;;;;;;;23.34;33.74;102795.59;4214566;28;19926;-72
2024/02/01 08:14:12;;;;;;;;;;;;;;;23.33;33.78;102788.53;4214590;28;20015;-71
2024/02/01 08:16:17;;;;;;;;;;;;;;;23.33;33.96;102788.53;4214614;28;19924;-72
2024/02/01 08:18:19;;;;;;;;;;;;;;;23.34;33.96;102797.44;4214539;28;19920;-72
2024/02/01 08:20:21;;;;;;;;;;;;;;;23.33;33.83;102796.56;4214573;28;19924;-71
2024/02/01 08:22:23;;;;;;;;;;;;;;;23.34;33.84;102797.44;4214433;28;19924;-72
2024/02/01 08:24:24;;;;;;;;;;;;;;;23.35;33.83;102794.66;4214589;28;19926;-72
2024/02/01 08:26:27;;;;;;;;;;;;;;;23.36;34.11;102795.53;4214376;28;19982;-72
2024/02/01 08:28:32;;;;;;;;;;;;;;;23.37;33.78;102803.50;4214730;28;20019;-74
2024/02/01 08:30:34;;;;;;;;;;;;;;;23.39;33.89;102796.22;4214377;28;19920;-74
2024/02/01 08:32:36;;;;;;;;;;;;;;;23.39;33.99;102804.28;4214514;28;19924;-73
2024/02/01 08:34:39;;;;;;;;;;;;;;;23.38;33.84;102807.03;4214506;28;19977;-73
2024/02/01 08:36:43;;;;;;;;;;;;;;;23.37;34.01;102803.50;4214352;28;19920;-73
2024/02/01 08:38:45;;;;;;;;;;;;;;;23.37;33.98;102806.19;4213084;28;20349;-74
2024/02/01 08:40:47;;;;;;;;;;;;;;;23.36;33.98;102808.97;4213887;28;19931;-74
2024/02/01 08:42:57;;;;;;;;;;;;;;;23.36;34.09;102808.97;4214366;28;19920;-73
2024/02/01 08:44:59;;;;;;;;;;;;;;;23.35;33.88;102810.75;4214281;28;20448;-73
2024/02/01 08:47:01;;;;;;;;;;;;;;;23.36;33.97;102806.28;4214525;28;20345;-72
2024/02/01 08:49:03;;;;;;;;;;;;;;;23.38;34.21;102815.09;4214302;28;19966;-72
2024/02/01 08:51:05;;;;;;;;;;;;;;;23.38;33.95;102813.28;4214132;28;19920;-72
2024/02/01 08:53:08;;;;;;;;;;;;;;;23.39;34.03;102822.19;4214250;28;19920;-73
2024/02/01 08:55:10;;;;;;;;;;;;;;;23.39;33.96;102832.94;4213865;28;19920;-72
2024/02/01 08:57:13;;;;;;;;;;;;;;;23.39;33.99;102831.13;4214300;28;19965;-72
2024/02/01 08:59:22;;;;;;;;;;;;;;;23.41;34.19;102831.88;4213957;28;19924;-72
2024/02/01 09:01:26;;;;;;;;;;;;;;;23.41;33.96;102839.09;4214155;28;19927;-75
2024/02/01 09:03:32;;;;;;;;;;;;;;;23.42;33.89;102838.13;4214192;28;19920;-72
2024/02/01 09:05:34;;;;;;;;;;;;;;;23.43;33.92;102845.25;4214188;28;19938;-71
2024/02/01 09:07:41;;;;;;;;;;;;;;;23.39;33.90;102841.88;4214021;28;19920;-72
2024/02/01 09:09:43;;;;;;;;;;;;;;;23.39;34.02;102836.50;4213835;28;19920;-72
2024/02/01 09:11:44;;;;;;;;;;;;;;;23.39;34.02;102832.94;4214086;28;20354;-74
2024/02/01 09:13:46;;;;;;;;;;;;;;;23.39;34.12;102832.94;4214060;28;19920;-71
2024/02/01 09:15:49;;;;;;;;;;;;;;;23.39;34.02;102838.31;4214088;28;19923;-72
2024/02/01 09:17:50;;;;;;;;;;;;;;;23.39;34.03;102835.63;4213993;28;19920;-71
2024/02/01 09:19:52;;;;;;;;;;;;;;;23.40;34.29;102835.56;4213842;28;19950;-71
2024/02/01 09:21:54;;;;;;;;;;;;;;;23.42;34.37;102840.81;4213957;28;19920;-74
2024/02/01 09:23:55;;;;;;;;;;;;;;;23.43;34.07;102840.72;4213763;28;20331;-74
2024/02/01 09:25:57;;;;;;;;;;;;;;;23.44;34.13;102844.31;4213807;28;19965;-74
2024/02/01 09:28:00;;;;;;;;;;;;;;;23.43;34.07;102847.94;4214134;28;19924;-74
2024/02/01 09:30:03;;;;;;;;;;;;;;;23.43;34.54;102848.78;4214047;28;20383;-73
2024/02/01 09:32:05;;;;;;;;;;;;;;;23.44;34.28;102855.03;4214100;28;19973;-73
2024/02/01 09:34:08;;;;;;;;;;;;;;;23.45;34.05;102854.06;4216023;28;20356;-74
2024/02/01 09:36:11;;;;;;;;;;;;;;;23.44;33.98;102855.03;4217033;28;19980;-74
2024/02/01 09:38:12;;;;;;;;;;;;;;;23.44;34.26;102863.09;4216740;28;19965;-74
2024/02/01 09:40:14;;;;;;;;;;;;;;;23.43;34.26;102858.69;4217055;28;20010;-73
2024/02/01 09:42:17;;;;;;;;;;;;;;;23.43;34.16;102870.28;4217081;28;19920;-73
2024/02/01 09:44:20;;;;;;;;;;;;;;;23.43;34.32;102864.91;4217143;28;19920;-74
2024/02/01 09:46:22;;;;;;;;;;;;;;;23.45;34.03;102860.31;4215715;28;19989;-73
2024/02/01 09:48:24;;;;;;;;;;;;;;;23.45;34.18;102859.44;4217148;28;20118;-74
2024/02/01 09:50:26;;;;;;;;;;;;;;;23.45;34.16;102863.00;4216938;28;19980;-74
2024/02/01 09:52:27;;;;;;;;;;;;;;;23.46;34.22;102858.50;4216673;28;19965;-74
2024/02/01 09:54:29;;;;;;;;;;;;;;;23.47;34.52;102865.59;4216640;28;19956;-73
2024/02/01 09:56:30;;;;;;;;;;;;;;;23.48;34.36;102875.38;4216721;28;19977;-73
2024/02/01 09:58:32;;;;;;;;;;;;;;;23.47;34.13;102876.34;4216528;28;19921;-73
2024/02/01 10:00:34;;;;;;;;;;;;;;;23.48;34.22;102877.22;4216844;28;19920;-73
2024/02/01 10:02:36;;;;;;;;;;;;;;;23.46;34.34;102871.91;4216680;28;19920;-74
2024/02/01 10:04:37;;;;;;;;;;;;;;;23.47;34.40;102876.34;4216945;28;19927;-73
2024/02/01 10:06:39;;;;;;;;;;;;;;;23.46;34.37;102874.59;4216176;28;19924;-73
2024/02/01 10:08:42;;;;;;;;;;;;;;;23.47;34.29;102875.47;4216692;28;19963;-73
2024/02/01 10:10:45;;;;;;;;;;;;;;;23.47;34.29;102872.81;4215440;28;19928;-73
2024/02/01 10:12:47;;;;;;;;;;;;;;;23.48;34.27;102874.53;4216491;28;19924;-73
2024/02/01 10:14:50;;;;;;;;;;;;;;;23.49;34.36;102876.25;4216704;28;19927;-73
2024/02/01 10:16:51;;;;;;;;;;;;;;;23.50;34.59;102870.81;4216372;28;19920;-73
2024/02/01 10:19:08;;;;;;;;;;;;;;;23.51;34.29;102882.41;4216386;28;20432;-74
2024/02/01 10:21:22;;;;;;;;;;;;;;;23.52;34.65;102885.00;4216100;28;19920;-74
2024/02/01 10:23:43;;;;;;;;;;;;;;;23.51;34.41;102894.00;4206299;28;19924;-75
2024/02/01 10:25:46;;;;;;;;;;;;;;;23.52;34.38;102897.56;4199367;28;19924;-76
2024/02/01 10:27:53;;;;;;;;;;;;;;;23.52;34.40;102892.19;4199444;28;19973;-75
2024/02/01 10:29:55;;;;;;;;;;;;;;;23.50;34.71;102892.28;4195723;28;19928;-76
2024/02/01 10:32:01;;;;;;;;;;;;;;;23.50;34.59;102899.47;4197382;28;19973;-74
2024/02/01 10:34:10;;;;;;;;;;;;;;;23.50;34.82;102896.78;4198398;28;19930;-73
2024/02/01 10:36:20;;;;;;;;;;;;;;;23.51;34.77;102901.19;4210002;28;19959;-73
2024/02/01 10:38:23;;;;;;;;;;;;;;;23.51;35.12;102895.84;4197942;28;19931;-73
2024/02/01 10:40:29;;;;;;;;;;;;;;;23.51;34.88;102896.69;4194542;28;19927;-75
2024/02/01 10:42:32;;;;;;;;;;;;;;;23.52;35.17;102897.56;4195839;28;19924;-77
2024/02/01 10:44:37;;;;;;;;;;;;;;;23.52;35.32;102892.19;4198221;28;19920;-74
2024/02/01 10:46:41;;;;;;;;;;;;;;;23.53;35.31;102905.53;4198061;28;20557;-75
2024/02/01 10:48:54;;;;;;;;;;;;;;;23.53;35.06;102902.84;4198885;28;20336;-76
2024/02/01 10:50:56;;;;;;;;;;;;;;;23.54;35.41;102903.72;4198607;28;19963;-76
2024/02/01 10:52:58;;;;;;;;;;;;;;;23.56;35.12;102904.50;4197347;28;19946;-76
2024/02/01 10:55:01;;;;;;;;;;;;;;;23.57;35.54;102908.91;4197184;28;19920;-75
2024/02/01 10:57:06;;;;;;;;;;;;;;;23.56;35.13;102901.81;4198970;28;20033;-75
2024/02/01 10:59:09;;;;;;;;;;;;;;;23.53;35.43;102905.53;4198314;28;19924;-76
2024/02/01 11:01:12;;;;;;;;;;;;;;;23.54;35.50;102893.00;4198594;28;20356;-70
2024/02/01 11:03:16;;;;;;;;;;;;;;;23.54;35.24;102890.31;4181859;28;19933;-75
2024/02/01 11:05:18;;;;;;;;;;;;;;;23.53;35.74;102897.47;4194668;28;19995;-76
2024/02/01 11:07:21;;;;;;;;;;;;;;;23.54;35.53;102895.66;4198274;28;20318;-73
2024/02/01 11:09:22;;;;;;;;;;;;;;;23.54;35.41;102893.00;4181855;28;19920;-75
2024/02/01 11:11:30;;;;;;;;;;;;;;;23.56;35.38;102885.69;4181830;28;20391;-75
2024/02/01 11:13:32;;;;;;;;;;;;;;;23.56;35.43;102883.00;4181736;28;20291;-76
2024/02/01 11:15:35;;;;;;;;;;;;;;;23.56;35.54;102881.19;4182117;28;20019;-75
2024/02/01 11:17:37;;;;;;;;;;;;;;;23.57;35.82;102882.94;4181716;28;19944;-75